createdAt,value
2023-03-26T00:01:15.772Z,12.52
2023-03-26T00:06:27.707Z,12.56
2023-03-26T00:11:48.188Z,12.54
2023-03-26T00:17:16.045Z,12.33
2023-03-26T00:22:29.806Z,12.52
2023-03-26T00:27:45.633Z,12.58
2023-03-26T00:33:13.821Z,12.62
2023-03-26T00:38:41.761Z,12.52
2023-03-26T00:43:51.520Z,12.46
2023-03-26T00:48:59.852Z,12.53
2023-03-26T00:54:14.223Z,12.47
2023-03-26T00:59:24.590Z,12.56
2023-03-26T01:04:37.743Z,12.69
2023-03-26T01:09:52.802Z,12.72
2023-03-26T01:15:02.666Z,12.75
2023-03-26T01:20:18.130Z,12.80
2023-03-26T01:25:34.753Z,12.73
2023-03-26T01:30:45.011Z,12.78
2023-03-26T01:36:03.091Z,12.87
2023-03-26T01:41:44.896Z,12.88
2023-03-26T01:46:51.763Z,12.83
2023-03-26T01:52:03.644Z,12.83
2023-03-26T01:57:41.139Z,12.67
2023-03-26T02:03:36.572Z,12.60
2023-03-26T02:09:00.862Z,12.58
2023-03-26T02:14:37.533Z,12.50
2023-03-26T02:20:13.154Z,12.45
2023-03-26T02:25:24.605Z,12.55
2023-03-26T02:30:34.450Z,12.54
2023-03-26T02:35:55.033Z,12.42
2023-03-26T02:41:11.269Z,12.38
2023-03-26T02:46:43.702Z,12.42
2023-03-26T02:52:10.184Z,12.52
2023-03-26T02:57:23.444Z,12.48
2023-03-26T03:02:49.729Z,12.54
2023-03-26T03:08:20.910Z,12.37
2023-03-26T03:14:00.104Z,12.27
2023-03-26T03:24:46.322Z,12.26
2023-03-26T03:29:50.016Z,12.13
2023-03-26T03:35:24.085Z,12.25
2023-03-26T03:40:32.390Z,12.08
2023-03-26T03:45:36.348Z,12.02
2023-03-26T03:51:19.720Z,11.91
2023-03-26T03:56:26.358Z,11.52
2023-03-26T04:01:52.940Z,11.33
2023-03-26T04:07:17.999Z,11.25
2023-03-26T04:12:44.266Z,11.17
2023-03-26T04:17:52.479Z,11.12
2023-03-26T04:22:58.552Z,11.07
2023-03-26T04:28:08.703Z,10.99
2023-03-26T04:33:25.097Z,11.05
2023-03-26T04:38:35.713Z,10.94
2023-03-26T04:43:47.559Z,11.03
2023-03-26T04:49:09.465Z,11.00
2023-03-26T04:54:15.636Z,11.04
2023-03-26T04:59:35.093Z,11.04
2023-03-26T05:04:43.985Z,11.09
2023-03-26T05:09:49.874Z,11.15
2023-03-26T05:14:59.073Z,11.11
2023-03-26T05:20:34.801Z,11.20
2023-03-26T05:25:42.435Z,11.15
2023-03-26T05:30:54.436Z,11.23
2023-03-26T05:36:04.218Z,11.17
2023-03-26T05:41:11.660Z,11.11
2023-03-26T05:46:20.465Z,11.12
2023-03-26T05:51:24.920Z,11.14
2023-03-26T05:56:48.774Z,11.22
2023-03-26T06:02:11.322Z,11.36
2023-03-26T06:07:16.859Z,11.41
2023-03-26T06:12:27.592Z,11.55
2023-03-26T06:17:31.175Z,11.75
2023-03-26T06:22:41.683Z,12.02
2023-03-26T06:28:18.698Z,12.22
2023-03-26T06:33:40.794Z,12.50
2023-03-26T06:38:45.829Z,12.40
2023-03-26T06:43:50.879Z,12.29
2023-03-26T06:49:30.057Z,12.26
2023-03-26T06:54:56.200Z,12.44
2023-03-26T07:00:20.424Z,12.52
2023-03-26T07:05:44.459Z,12.45
2023-03-26T07:11:07.170Z,12.51
2023-03-26T07:16:49.953Z,12.63
2023-03-26T07:22:20.428Z,12.74
2023-03-26T07:28:04.294Z,12.65
2023-03-26T07:33:30.634Z,12.74
2023-03-26T07:39:11.351Z,12.66
2023-03-26T07:44:47.408Z,12.39
2023-03-26T07:50:26.446Z,12.31
2023-03-26T07:55:40.326Z,12.57
2023-03-26T08:01:20.605Z,12.84
2023-03-26T08:06:32.988Z,12.85
2023-03-26T08:11:55.703Z,12.66
2023-03-26T08:17:05.188Z,12.39
2023-03-26T08:22:15.557Z,12.20
2023-03-26T08:27:25.408Z,12.23
2023-03-26T08:32:29.223Z,12.26
2023-03-26T08:37:34.156Z,12.21
2023-03-26T08:43:02.586Z,12.16
2023-03-26T08:48:49.880Z,12.22
2023-03-26T08:54:21.335Z,13.03
2023-03-26T09:00:11.269Z,13.59
2023-03-26T09:05:47.192Z,13.90
2023-03-26T09:11:29.156Z,13.34
2023-03-26T09:17:03.863Z,12.81
2023-03-26T09:22:55.100Z,12.60
2023-03-26T09:28:22.570Z,12.59
2023-03-26T09:33:52.250Z,12.37
2023-03-26T09:39:05.417Z,12.26
2023-03-26T09:44:36.752Z,12.30
2023-03-26T09:49:52.905Z,12.31
2023-03-26T09:55:15.602Z,12.40
2023-03-26T10:00:30.395Z,12.50
2023-03-26T10:05:49.895Z,12.40
2023-03-26T10:10:59.516Z,12.90
2023-03-26T10:16:16.248Z,13.01
2023-03-26T10:21:30.805Z,12.10
2023-03-26T10:27:10.025Z,12.29
2023-03-26T10:32:24.274Z,11.95
2023-03-26T10:37:39.969Z,13.22
2023-03-26T10:42:56.917Z,13.53
2023-03-26T10:48:23.081Z,13.31
2023-03-26T10:53:36.070Z,15.05
2023-03-26T10:58:48.562Z,15.07
2023-03-26T11:03:57.079Z,15.96
2023-03-26T11:09:12.375Z,15.00
2023-03-26T11:14:33.691Z,15.94
2023-03-26T11:19:45.538Z,16.32
2023-03-26T11:25:13.241Z,15.88
2023-03-26T11:30:31.042Z,16.79
2023-03-26T11:35:40.730Z,16.11
2023-03-26T11:40:51.135Z,16.27
2023-03-26T11:46:19.371Z,16.81
2023-03-26T11:51:31.499Z,17.19
2023-03-26T11:56:39.094Z,16.87
2023-03-26T12:01:50.454Z,17.19
2023-03-26T12:06:59.748Z,16.69
2023-03-26T12:12:06.118Z,15.82
2023-03-26T12:17:16.313Z,17.00
2023-03-26T12:22:36.299Z,16.95
2023-03-26T12:27:44.838Z,17.88
2023-03-26T12:32:53.327Z,17.08
2023-03-26T12:38:17.118Z,16.72
2023-03-26T12:44:48.827Z,16.98
2023-03-26T12:48:56.957Z,17.26
2023-03-26T12:54:29.019Z,16.37
2023-03-26T12:59:47.688Z,16.27
2023-03-26T13:05:09.700Z,16.81
2023-03-26T13:10:37.265Z,17.28
2023-03-26T13:15:49.111Z,17.53
2023-03-26T13:21:03.249Z,17.70
2023-03-26T13:26:22.264Z,17.94
2023-03-26T13:31:35.262Z,18.28
2023-03-26T13:36:48.814Z,17.62
2023-03-26T13:42:09.962Z,16.75
2023-03-26T13:47:18.279Z,17.34
2023-03-26T13:52:26.364Z,17.25
2023-03-26T13:57:35.818Z,17.80
2023-03-26T14:02:42.100Z,18.12
2023-03-26T14:07:52.497Z,17.80
2023-03-26T14:13:01.263Z,18.03
2023-03-26T14:18:14.651Z,18.15
2023-03-26T14:23:34.820Z,17.99
2023-03-26T14:29:09.702Z,18.26
2023-03-26T14:34:38.970Z,18.02
2023-03-26T14:40:15.134Z,18.03
2023-03-26T14:45:59.437Z,17.82
2023-03-26T14:51:24.643Z,17.91
2023-03-26T14:56:59.716Z,18.20
2023-03-26T15:02:47.711Z,17.64
2023-03-26T15:08:20.299Z,17.64
2023-03-26T15:13:51.072Z,17.43
2023-03-26T15:19:19.216Z,17.25
2023-03-26T15:25:03.057Z,17.21
2023-03-26T15:30:56.099Z,17.12
2023-03-26T15:36:26.541Z,17.02
2023-03-26T15:41:35.036Z,16.83
2023-03-26T15:47:00.304Z,16.63
2023-03-26T15:52:23.110Z,16.09
2023-03-26T15:57:33.553Z,15.94
2023-03-26T16:02:51.836Z,15.79
2023-03-26T16:08:15.403Z,15.52
2023-03-26T16:13:33.691Z,15.24
2023-03-26T16:18:42.386Z,15.02
2023-03-26T16:23:58.361Z,14.94
2023-03-26T16:29:22.454Z,14.54
2023-03-26T16:34:38.912Z,14.50
2023-03-26T16:39:46.921Z,13.83
2023-03-26T16:45:05.663Z,13.47
2023-03-26T16:50:25.083Z,13.43
2023-03-26T16:55:43.924Z,13.46
2023-03-26T17:01:06.936Z,13.34
2023-03-26T17:06:38.404Z,13.43
2023-03-26T17:11:59.350Z,12.97
2023-03-26T17:17:21.980Z,13.02
2023-03-26T17:22:40.733Z,12.90
2023-03-26T17:28:23.875Z,12.83
2023-03-26T17:33:34.917Z,12.50
2023-03-26T17:39:18.327Z,12.39
2023-03-26T17:44:47.743Z,12.26
2023-03-26T17:49:56.569Z,12.25
2023-03-26T17:55:28.520Z,12.04
2023-03-26T18:00:45.661Z,11.90
2023-03-26T18:05:55.859Z,11.87
2023-03-26T18:11:28.901Z,11.67
2023-03-26T18:16:41.343Z,11.11
2023-03-26T18:21:55.048Z,11.03
2023-03-26T18:27:06.682Z,11.04
2023-03-26T18:32:23.926Z,10.59
2023-03-26T18:37:32.167Z,10.26
2023-03-26T18:42:41.137Z,10.14
2023-03-26T18:48:03.409Z,10.05
2023-03-26T18:53:15.382Z,9.86
2023-03-26T18:58:28.076Z,9.74
2023-03-26T19:03:38.904Z,9.67
2023-03-26T19:08:45.197Z,9.56
2023-03-26T19:14:03.523Z,9.57
2023-03-26T19:19:09.793Z,9.35
2023-03-26T19:24:16.534Z,9.34
2023-03-26T19:29:26.477Z,9.33
2023-03-26T19:34:37.516Z,9.27
2023-03-26T19:39:44.517Z,9.17
2023-03-26T19:44:50.496Z,9.10
2023-03-26T19:49:59.374Z,8.88
2023-03-26T19:55:07.009Z,8.86
2023-03-26T20:00:15.223Z,8.81
2023-03-26T20:05:27.096Z,8.77
2023-03-26T20:10:31.678Z,8.64
2023-03-26T20:15:38.928Z,8.50
2023-03-26T20:20:46.190Z,8.76
2023-03-26T20:25:55.188Z,8.77
2023-03-26T20:31:00.389Z,8.69
2023-03-26T20:36:08.607Z,8.36
2023-03-26T20:41:16.424Z,8.34
2023-03-26T20:46:23.913Z,8.27
2023-03-26T20:51:38.273Z,8.06
2023-03-26T20:56:43.510Z,8.18
2023-03-26T21:01:49.133Z,8.16
2023-03-26T21:07:03.239Z,8.28
2023-03-26T21:12:24.230Z,8.27
2023-03-26T21:17:30.125Z,8.21
2023-03-26T21:22:41.301Z,8.17
2023-03-26T21:27:52.852Z,8.14
2023-03-26T21:32:58.181Z,8.28
2023-03-26T21:38:06.922Z,8.31
2023-03-26T21:43:14.925Z,8.27
2023-03-26T21:48:20.691Z,8.27
2023-03-26T21:53:29.042Z,8.23
2023-03-26T21:58:47.260Z,8.04
2023-03-26T22:04:07.147Z,8.05
2023-03-26T22:09:26.361Z,7.85
2023-03-26T22:14:39.999Z,7.72
2023-03-26T22:19:46.088Z,7.50
2023-03-26T22:24:52.555Z,7.44
2023-03-26T22:29:57.249Z,7.49
2023-03-26T22:35:02.009Z,7.42
2023-03-26T22:40:14.114Z,7.33
2023-03-26T22:45:18.261Z,7.54
2023-03-26T22:50:22.309Z,7.49
2023-03-26T22:55:30.925Z,7.52
2023-03-26T23:00:36.440Z,7.53
2023-03-26T23:05:45.746Z,7.57
2023-03-26T23:10:54.134Z,7.43
2023-03-26T23:15:58.937Z,7.30
2023-03-26T23:21:03.330Z,7.21
2023-03-26T23:26:10.114Z,7.23
2023-03-26T23:31:14.586Z,7.37
2023-03-26T23:36:23.948Z,7.41
2023-03-26T23:41:31.663Z,7.25
2023-03-26T23:46:38.337Z,7.29
2023-03-26T23:51:44.228Z,7.47
2023-03-26T23:56:51.885Z,7.43
